sensor_id;sensor_type;location;lat;lon;timestamp;P1;durP1;ratioP1;P2;durP2;ratioP2
27127;SDS011;14660;49.008;8.390;2022-11-15T00:01:06;13.05;;;9.60;;
27127;SDS011;14660;49.008;8.390;2022-11-15T00:03:43;18.23;;;9.90;;
27127;SDS011;14660;49.008;8.390;2022-11-15T00:06:10;14.98;;;10.02;;
27127;SDS011;14660;49.008;8.390;2022-11-15T00:08:37;15.60;;;9.30;;
27127;SDS011;14660;49.008;8.390;2022-11-15T00:11:04;13.93;;;9.32;;
27127;SDS011;14660;49.008;8.390;2022-11-15T00:13:31;15.18;;;10.13;;
27127;SDS011;14660;49.008;8.390;2022-11-15T00:15:59;13.27;;;10.10;;
27127;SDS011;14660;49.008;8.390;2022-11-15T00:18:27;13.95;;;9.70;;
27127;SDS011;14660;49.008;8.390;2022-11-15T00:20:54;12.15;;;8.90;;
27127;SDS011;14660;49.008;8.390;2022-11-15T00:23:21;12.38;;;8.57;;
27127;SDS011;14660;49.008;8.390;2022-11-15T00:25:54;14.38;;;9.98;;
27127;SDS011;14660;49.008;8.390;2022-11-15T00:28:22;17.23;;;9.18;;
27127;SDS011;14660;49.008;8.390;2022-11-15T00:30:49;16.48;;;10.05;;
27127;SDS011;14660;49.008;8.390;2022-11-15T00:33:17;12.30;;;9.23;;
27127;SDS011;14660;49.008;8.390;2022-11-15T00:35:44;16.10;;;9.88;;
27127;SDS011;14660;49.008;8.390;2022-11-15T00:38:11;15.07;;;9.02;;
27127;SDS011;14660;49.008;8.390;2022-11-15T00:40:40;12.18;;;8.90;;
27127;SDS011;14660;49.008;8.390;2022-11-15T00:43:07;14.20;;;9.52;;
27127;SDS011;14660;49.008;8.390;2022-11-15T00:45:34;14.63;;;9.68;;
27127;SDS011;14660;49.008;8.390;2022-11-15T00:48:03;12.43;;;9.32;;
27127;SDS011;14660;49.008;8.390;2022-11-15T00:50:30;12.75;;;8.70;;
27127;SDS011;14660;49.008;8.390;2022-11-15T00:52:57;16.45;;;10.10;;
27127;SDS011;14660;49.008;8.390;2022-11-15T00:55:30;15.63;;;9.18;;
27127;SDS011;14660;49.008;8.390;2022-11-15T00:57:57;16.00;;;9.02;;
27127;SDS011;14660;49.008;8.390;2022-11-15T01:00:24;12.98;;;8.55;;
27127;SDS011;14660;49.008;8.390;2022-11-15T01:02:51;14.73;;;9.05;;
27127;SDS011;14660;49.008;8.390;2022-11-15T01:05:18;13.23;;;8.27;;
27127;SDS011;14660;49.008;8.390;2022-11-15T01:07:46;11.55;;;7.90;;
27127;SDS011;14660;49.008;8.390;2022-11-15T01:10:13;11.70;;;8.05;;
27127;SDS011;14660;49.008;8.390;2022-11-15T01:12:40;12.80;;;9.95;;
27127;SDS011;14660;49.008;8.390;2022-11-15T01:15:07;15.55;;;10.32;;
27127;SDS011;14660;49.008;8.390;2022-11-15T01:17:34;15.10;;;8.95;;
27127;SDS011;14660;49.008;8.390;2022-11-15T01:20:07;10.20;;;8.20;;
27127;SDS011;14660;49.008;8.390;2022-11-15T01:22:44;13.43;;;9.57;;
27127;SDS011;14660;49.008;8.390;2022-11-15T01:25:11;18.38;;;14.27;;
27127;SDS011;14660;49.008;8.390;2022-11-15T01:27:38;20.38;;;13.07;;
27127;SDS011;14660;49.008;8.390;2022-11-15T01:30:06;18.25;;;11.07;;
27127;SDS011;14660;49.008;8.390;2022-11-15T01:32:34;15.68;;;9.95;;
27127;SDS011;14660;49.008;8.390;2022-11-15T01:35:12;15.23;;;8.35;;
27127;SDS011;14660;49.008;8.390;2022-11-15T01:37:38;11.18;;;7.90;;
27127;SDS011;14660;49.008;8.390;2022-11-15T01:40:05;12.40;;;7.90;;
27127;SDS011;14660;49.008;8.390;2022-11-15T01:42:32;11.75;;;7.70;;
27127;SDS011;14660;49.008;8.390;2022-11-15T01:44:59;13.43;;;8.23;;
27127;SDS011;14660;49.008;8.390;2022-11-15T01:50:19;12.35;;;7.65;;
27127;SDS011;14660;49.008;8.390;2022-11-15T01:52:50;9.55;;;7.45;;
27127;SDS011;14660;49.008;8.390;2022-11-15T01:55:20;13.30;;;8.10;;
27127;SDS011;14660;49.008;8.390;2022-11-15T01:57:52;10.55;;;7.57;;
27127;SDS011;14660;49.008;8.390;2022-11-15T02:00:23;10.05;;;6.78;;
27127;SDS011;14660;49.008;8.390;2022-11-15T02:02:50;10.13;;;6.97;;
27127;SDS011;14660;49.008;8.390;2022-11-15T02:05:18;12.68;;;8.73;;
27127;SDS011;14660;49.008;8.390;2022-11-15T02:07:45;11.10;;;7.88;;
27127;SDS011;14660;49.008;8.390;2022-11-15T02:10:21;12.40;;;8.38;;
27127;SDS011;14660;49.008;8.390;2022-11-15T02:12:50;10.70;;;7.30;;
27127;SDS011;14660;49.008;8.390;2022-11-15T02:15:18;10.30;;;7.03;;
27127;SDS011;14660;49.008;8.390;2022-11-15T02:35:34;14.13;;;8.38;;
27127;SDS011;14660;49.008;8.390;2022-11-15T02:42:04;10.23;;;6.72;;
27127;SDS011;14660;49.008;8.390;2022-11-15T02:47:12;11.10;;;7.43;;
27127;SDS011;14660;49.008;8.390;2022-11-15T02:49:51;14.20;;;9.27;;
27127;SDS011;14660;49.008;8.390;2022-11-15T02:52:22;14.65;;;7.10;;
27127;SDS011;14660;49.008;8.390;2022-11-15T02:54:55;17.92;;;9.05;;
27127;SDS011;14660;49.008;8.390;2022-11-15T02:57:44;12.55;;;8.40;;
27127;SDS011;14660;49.008;8.390;2022-11-15T03:00:24;11.00;;;7.22;;
27127;SDS011;14660;49.008;8.390;2022-11-15T03:09:09;11.45;;;6.50;;
27127;SDS011;14660;49.008;8.390;2022-11-15T03:11:48;8.95;;;5.85;;
27127;SDS011;14660;49.008;8.390;2022-11-15T03:14:24;11.30;;;7.20;;
27127;SDS011;14660;49.008;8.390;2022-11-15T03:20:07;7.90;;;5.13;;
27127;SDS011;14660;49.008;8.390;2022-11-15T03:22:39;6.70;;;4.68;;
27127;SDS011;14660;49.008;8.390;2022-11-15T03:25:09;8.73;;;5.25;;
27127;SDS011;14660;49.008;8.390;2022-11-15T03:27:44;8.13;;;5.35;;
27127;SDS011;14660;49.008;8.390;2022-11-15T03:32:48;7.55;;;4.88;;
27127;SDS011;14660;49.008;8.390;2022-11-15T03:35:30;8.77;;;5.30;;
27127;SDS011;14660;49.008;8.390;2022-11-15T03:44:46;8.00;;;4.95;;
27127;SDS011;14660;49.008;8.390;2022-11-15T03:50:08;8.40;;;5.25;;
27127;SDS011;14660;49.008;8.390;2022-11-15T03:52:48;8.23;;;4.85;;
27127;SDS011;14660;49.008;8.390;2022-11-15T03:55:17;7.38;;;5.03;;
27127;SDS011;14660;49.008;8.390;2022-11-15T03:57:46;7.15;;;4.68;;
27127;SDS011;14660;49.008;8.390;2022-11-15T04:00:15;8.60;;;5.45;;
27127;SDS011;14660;49.008;8.390;2022-11-15T04:02:42;6.63;;;5.10;;
27127;SDS011;14660;49.008;8.390;2022-11-15T04:05:09;7.90;;;5.28;;
27127;SDS011;14660;49.008;8.390;2022-11-15T04:07:37;7.57;;;5.22;;
27127;SDS011;14660;49.008;8.390;2022-11-15T04:10:04;8.35;;;5.32;;
27127;SDS011;14660;49.008;8.390;2022-11-15T04:12:33;8.45;;;5.47;;
27127;SDS011;14660;49.008;8.390;2022-11-15T04:15:06;7.90;;;5.07;;
27127;SDS011;14660;49.008;8.390;2022-11-15T04:17:53;11.23;;;5.63;;
27127;SDS011;14660;49.008;8.390;2022-11-15T04:23:27;7.53;;;5.20;;
27127;SDS011;14660;49.008;8.390;2022-11-15T04:26:14;8.90;;;4.72;;
27127;SDS011;14660;49.008;8.390;2022-11-15T04:28:43;8.00;;;5.22;;
27127;SDS011;14660;49.008;8.390;2022-11-15T04:31:29;6.28;;;5.35;;
27127;SDS011;14660;49.008;8.390;2022-11-15T04:33:55;9.00;;;5.13;;
27127;SDS011;14660;49.008;8.390;2022-11-15T04:36:22;7.63;;;5.38;;
27127;SDS011;14660;49.008;8.390;2022-11-15T04:39:08;7.18;;;5.22;;
27127;SDS011;14660;49.008;8.390;2022-11-15T04:41:35;7.40;;;4.88;;
27127;SDS011;14660;49.008;8.390;2022-11-15T04:44:02;5.68;;;4.55;;
27127;SDS011;14660;49.008;8.390;2022-11-15T04:46:29;9.07;;;5.68;;
27127;SDS011;14660;49.008;8.390;2022-11-15T04:49:03;8.75;;;4.80;;
27127;SDS011;14660;49.008;8.390;2022-11-15T04:51:30;8.20;;;6.15;;
27127;SDS011;14660;49.008;8.390;2022-11-15T04:53:57;8.93;;;5.00;;
27127;SDS011;14660;49.008;8.390;2022-11-15T04:56:24;7.95;;;4.53;;
27127;SDS011;14660;49.008;8.390;2022-11-15T04:58:51;8.77;;;5.03;;
27127;SDS011;14660;49.008;8.390;2022-11-15T05:01:18;7.63;;;4.40;;
27127;SDS011;14660;49.008;8.390;2022-11-15T05:03:45;8.38;;;5.47;;
27127;SDS011;14660;49.008;8.390;2022-11-15T05:06:30;9.27;;;5.22;;
27127;SDS011;14660;49.008;8.390;2022-11-15T05:08:56;7.93;;;5.13;;
27127;SDS011;14660;49.008;8.390;2022-11-15T05:11:22;8.63;;;4.88;;
27127;SDS011;14660;49.008;8.390;2022-11-15T05:13:49;11.18;;;6.00;;
27127;SDS011;14660;49.008;8.390;2022-11-15T05:16:16;8.65;;;5.28;;
27127;SDS011;14660;49.008;8.390;2022-11-15T05:18:44;7.68;;;5.93;;
27127;SDS011;14660;49.008;8.390;2022-11-15T05:21:15;5.57;;;4.28;;
27127;SDS011;14660;49.008;8.390;2022-11-15T05:23:42;7.43;;;5.13;;
27127;SDS011;14660;49.008;8.390;2022-11-15T05:26:07;5.97;;;5.05;;
27127;SDS011;14660;49.008;8.390;2022-11-15T05:28:36;8.32;;;5.45;;
27127;SDS011;14660;49.008;8.390;2022-11-15T05:33:51;9.82;;;5.78;;
27127;SDS011;14660;49.008;8.390;2022-11-15T05:39:07;8.48;;;6.13;;
27127;SDS011;14660;49.008;8.390;2022-11-15T05:41:38;9.63;;;6.60;;
27127;SDS011;14660;49.008;8.390;2022-11-15T05:44:09;7.00;;;4.68;;
27127;SDS011;14660;49.008;8.390;2022-11-15T05:46:41;7.57;;;4.93;;
27127;SDS011;14660;49.008;8.390;2022-11-15T05:49:10;6.95;;;4.70;;
27127;SDS011;14660;49.008;8.390;2022-11-15T05:51:39;6.28;;;4.63;;
27127;SDS011;14660;49.008;8.390;2022-11-15T05:54:11;6.97;;;5.38;;
27127;SDS011;14660;49.008;8.390;2022-11-15T05:56:38;11.15;;;5.05;;
27127;SDS011;14660;49.008;8.390;2022-11-15T05:59:09;9.07;;;5.10;;
27127;SDS011;14660;49.008;8.390;2022-11-15T06:01:36;8.02;;;5.57;;
27127;SDS011;14660;49.008;8.390;2022-11-15T06:04:05;6.75;;;5.07;;
27127;SDS011;14660;49.008;8.390;2022-11-15T06:06:32;7.68;;;5.47;;
27127;SDS011;14660;49.008;8.390;2022-11-15T06:08:59;6.40;;;4.40;;
27127;SDS011;14660;49.008;8.390;2022-11-15T06:11:26;7.82;;;4.90;;
27127;SDS011;14660;49.008;8.390;2022-11-15T06:13:52;6.18;;;5.35;;
27127;SDS011;14660;49.008;8.390;2022-11-15T06:16:19;6.30;;;4.80;;
27127;SDS011;14660;49.008;8.390;2022-11-15T06:18:47;9.68;;;5.47;;
27127;SDS011;14660;49.008;8.390;2022-11-15T06:21:13;9.07;;;5.40;;
27127;SDS011;14660;49.008;8.390;2022-11-15T06:23:40;9.05;;;5.75;;
27127;SDS011;14660;49.008;8.390;2022-11-15T06:26:07;7.35;;;5.75;;
27127;SDS011;14660;49.008;8.390;2022-11-15T06:28:34;9.65;;;5.65;;
27127;SDS011;14660;49.008;8.390;2022-11-15T06:31:04;8.27;;;5.78;;
27127;SDS011;14660;49.008;8.390;2022-11-15T06:33:32;9.18;;;5.10;;
27127;SDS011;14660;49.008;8.390;2022-11-15T06:36:03;8.15;;;5.63;;
27127;SDS011;14660;49.008;8.390;2022-11-15T06:38:34;8.70;;;4.97;;
27127;SDS011;14660;49.008;8.390;2022-11-15T06:41:04;7.22;;;5.35;;
27127;SDS011;14660;49.008;8.390;2022-11-15T06:43:33;7.55;;;5.25;;
27127;SDS011;14660;49.008;8.390;2022-11-15T06:46:01;6.88;;;5.18;;
27127;SDS011;14660;49.008;8.390;2022-11-15T06:48:28;11.75;;;5.90;;
27127;SDS011;14660;49.008;8.390;2022-11-15T06:50:56;9.30;;;6.13;;
27127;SDS011;14660;49.008;8.390;2022-11-15T06:53:27;13.27;;;7.07;;
27127;SDS011;14660;49.008;8.390;2022-11-15T06:56:05;8.82;;;6.18;;
27127;SDS011;14660;49.008;8.390;2022-11-15T06:58:39;12.50;;;7.03;;
27127;SDS011;14660;49.008;8.390;2022-11-15T07:01:09;9.10;;;5.65;;
27127;SDS011;14660;49.008;8.390;2022-11-15T07:03:37;10.63;;;6.85;;
27127;SDS011;14660;49.008;8.390;2022-11-15T07:06:05;13.75;;;5.55;;
27127;SDS011;14660;49.008;8.390;2022-11-15T07:08:33;9.18;;;5.75;;
27127;SDS011;14660;49.008;8.390;2022-11-15T07:11:03;9.18;;;6.43;;
27127;SDS011;14660;49.008;8.390;2022-11-15T07:13:32;7.72;;;5.72;;
27127;SDS011;14660;49.008;8.390;2022-11-15T07:16:07;15.02;;;6.40;;
27127;SDS011;14660;49.008;8.390;2022-11-15T07:18:36;10.45;;;5.43;;
27127;SDS011;14660;49.008;8.390;2022-11-15T07:21:05;12.82;;;5.90;;
27127;SDS011;14660;49.008;8.390;2022-11-15T07:23:35;8.65;;;5.80;;
27127;SDS011;14660;49.008;8.390;2022-11-15T07:26:07;11.77;;;6.60;;
27127;SDS011;14660;49.008;8.390;2022-11-15T07:28:33;8.93;;;5.38;;
27127;SDS011;14660;49.008;8.390;2022-11-15T07:31:04;9.82;;;6.90;;
27127;SDS011;14660;49.008;8.390;2022-11-15T07:33:33;8.13;;;4.70;;
27127;SDS011;14660;49.008;8.390;2022-11-15T07:36:00;10.50;;;5.72;;
27127;SDS011;14660;49.008;8.390;2022-11-15T07:38:28;7.57;;;5.10;;
27127;SDS011;14660;49.008;8.390;2022-11-15T07:40:59;9.00;;;4.90;;
27127;SDS011;14660;49.008;8.390;2022-11-15T07:43:28;7.88;;;5.68;;
27127;SDS011;14660;49.008;8.390;2022-11-15T07:45:56;9.60;;;5.63;;
27127;SDS011;14660;49.008;8.390;2022-11-15T07:48:23;8.52;;;5.95;;
27127;SDS011;14660;49.008;8.390;2022-11-15T07:50:50;9.02;;;5.35;;
27127;SDS011;14660;49.008;8.390;2022-11-15T07:53:16;17.38;;;5.97;;
27127;SDS011;14660;49.008;8.390;2022-11-15T07:55:43;9.85;;;5.35;;
27127;SDS011;14660;49.008;8.390;2022-11-15T07:58:10;14.27;;;6.75;;
27127;SDS011;14660;49.008;8.390;2022-11-15T08:00:38;8.50;;;5.57;;
27127;SDS011;14660;49.008;8.390;2022-11-15T08:03:07;8.98;;;5.20;;
27127;SDS011;14660;49.008;8.390;2022-11-15T08:05:35;8.95;;;5.20;;
27127;SDS011;14660;49.008;8.390;2022-11-15T08:08:04;6.13;;;4.28;;
27127;SDS011;14660;49.008;8.390;2022-11-15T08:10:33;8.35;;;5.07;;
27127;SDS011;14660;49.008;8.390;2022-11-15T08:13:08;9.65;;;4.47;;
27127;SDS011;14660;49.008;8.390;2022-11-15T08:15:38;6.50;;;4.53;;
27127;SDS011;14660;49.008;8.390;2022-11-15T08:18:08;7.82;;;4.22;;
27127;SDS011;14660;49.008;8.390;2022-11-15T08:20:39;6.38;;;4.10;;
27127;SDS011;14660;49.008;8.390;2022-11-15T08:23:08;10.00;;;4.35;;
27127;SDS011;14660;49.008;8.390;2022-11-15T08:25:36;8.10;;;4.30;;
27127;SDS011;14660;49.008;8.390;2022-11-15T08:28:04;10.93;;;4.63;;
27127;SDS011;14660;49.008;8.390;2022-11-15T08:30:37;6.38;;;4.03;;
27127;SDS011;14660;49.008;8.390;2022-11-15T08:33:10;7.28;;;4.30;;
27127;SDS011;14660;49.008;8.390;2022-11-15T08:35:38;7.45;;;4.03;;
27127;SDS011;14660;49.008;8.390;2022-11-15T08:38:06;9.20;;;4.47;;
27127;SDS011;14660;49.008;8.390;2022-11-15T08:40:34;9.80;;;4.60;;
27127;SDS011;14660;49.008;8.390;2022-11-15T08:43:01;5.45;;;3.90;;
27127;SDS011;14660;49.008;8.390;2022-11-15T08:45:29;7.22;;;4.15;;
27127;SDS011;14660;49.008;8.390;2022-11-15T08:48:01;8.15;;;4.30;;
27127;SDS011;14660;49.008;8.390;2022-11-15T08:50:29;11.18;;;4.60;;
27127;SDS011;14660;49.008;8.390;2022-11-15T08:52:56;7.95;;;4.35;;
27127;SDS011;14660;49.008;8.390;2022-11-15T08:55:24;6.88;;;4.43;;
27127;SDS011;14660;49.008;8.390;2022-11-15T08:57:52;9.02;;;4.78;;
27127;SDS011;14660;49.008;8.390;2022-11-15T09:00:18;9.05;;;5.00;;
27127;SDS011;14660;49.008;8.390;2022-11-15T09:02:46;8.93;;;4.95;;
27127;SDS011;14660;49.008;8.390;2022-11-15T09:05:13;9.90;;;4.70;;
27127;SDS011;14660;49.008;8.390;2022-11-15T09:07:41;8.98;;;4.90;;
27127;SDS011;14660;49.008;8.390;2022-11-15T09:10:08;10.50;;;5.70;;
27127;SDS011;14660;49.008;8.390;2022-11-15T09:12:34;9.95;;;4.93;;
27127;SDS011;14660;49.008;8.390;2022-11-15T09:15:01;5.60;;;4.30;;
27127;SDS011;14660;49.008;8.390;2022-11-15T09:17:30;10.50;;;5.22;;
27127;SDS011;14660;49.008;8.390;2022-11-15T09:19:58;9.85;;;5.45;;
27127;SDS011;14660;49.008;8.390;2022-11-15T09:22:32;7.63;;;5.00;;
27127;SDS011;14660;49.008;8.390;2022-11-15T09:25:00;8.23;;;5.50;;
27127;SDS011;14660;49.008;8.390;2022-11-15T09:27:30;8.77;;;5.32;;
27127;SDS011;14660;49.008;8.390;2022-11-15T09:29:58;10.32;;;5.40;;
27127;SDS011;14660;49.008;8.390;2022-11-15T09:32:27;9.13;;;4.60;;
27127;SDS011;14660;49.008;8.390;2022-11-15T09:34:55;8.75;;;4.70;;
27127;SDS011;14660;49.008;8.390;2022-11-15T09:37:26;9.70;;;5.10;;
27127;SDS011;14660;49.008;8.390;2022-11-15T09:39:52;6.15;;;4.85;;
27127;SDS011;14660;49.008;8.390;2022-11-15T09:51:36;8.95;;;5.13;;
27127;SDS011;14660;49.008;8.390;2022-11-15T10:00:11;12.57;;;5.15;;
27127;SDS011;14660;49.008;8.390;2022-11-15T10:03:12;7.32;;;4.68;;
27127;SDS011;14660;49.008;8.390;2022-11-15T10:11:22;7.90;;;4.35;;
27127;SDS011;14660;49.008;8.390;2022-11-15T10:13:52;7.10;;;4.75;;
27127;SDS011;14660;49.008;8.390;2022-11-15T10:23:04;6.88;;;4.35;;
27127;SDS011;14660;49.008;8.390;2022-11-15T10:25:25;8.60;;;4.20;;
27127;SDS011;14660;49.008;8.390;2022-11-15T10:30:58;11.70;;;5.57;;
27127;SDS011;14660;49.008;8.390;2022-11-15T10:38:58;8.32;;;4.93;;
27127;SDS011;14660;49.008;8.390;2022-11-15T10:44:12;11.57;;;5.30;;
27127;SDS011;14660;49.008;8.390;2022-11-15T10:46:45;8.40;;;5.35;;
27127;SDS011;14660;49.008;8.390;2022-11-15T10:49:31;9.35;;;6.18;;
27127;SDS011;14660;49.008;8.390;2022-11-15T10:54:47;10.02;;;6.55;;
27127;SDS011;14660;49.008;8.390;2022-11-15T10:57:22;11.07;;;6.80;;
27127;SDS011;14660;49.008;8.390;2022-11-15T11:00:26;13.10;;;7.20;;
27127;SDS011;14660;49.008;8.390;2022-11-15T11:03:05;12.88;;;6.75;;
27127;SDS011;14660;49.008;8.390;2022-11-15T11:05:47;10.20;;;7.25;;
27127;SDS011;14660;49.008;8.390;2022-11-15T11:11:02;16.85;;;7.50;;
27127;SDS011;14660;49.008;8.390;2022-11-15T11:52:28;13.13;;;5.97;;
27127;SDS011;14660;49.008;8.390;2022-11-15T12:07:07;8.80;;;5.07;;
27127;SDS011;14660;49.008;8.390;2022-11-15T12:15:39;9.00;;;4.63;;
27127;SDS011;14660;49.008;8.390;2022-11-15T12:18:12;10.77;;;4.65;;
27127;SDS011;14660;49.008;8.390;2022-11-15T12:20:47;8.88;;;4.90;;
27127;SDS011;14660;49.008;8.390;2022-11-15T12:23:28;10.18;;;4.68;;
27127;SDS011;14660;49.008;8.390;2022-11-15T12:29:02;13.07;;;5.45;;
27127;SDS011;14660;49.008;8.390;2022-11-15T12:52:20;6.03;;;4.05;;
27127;SDS011;14660;49.008;8.390;2022-11-15T12:54:58;5.43;;;4.85;;
27127;SDS011;14660;49.008;8.390;2022-11-15T12:57:32;6.72;;;4.50;;
27127;SDS011;14660;49.008;8.390;2022-11-15T13:08:43;6.65;;;4.25;;
27127;SDS011;14660;49.008;8.390;2022-11-15T13:28:48;10.80;;;5.70;;
27127;SDS011;14660;49.008;8.390;2022-11-15T13:36:59;7.40;;;4.47;;
27127;SDS011;14660;49.008;8.390;2022-11-15T13:42:15;10.95;;;4.65;;
27127;SDS011;14660;49.008;8.390;2022-11-15T13:47:39;5.70;;;3.42;;
27127;SDS011;14660;49.008;8.390;2022-11-15T13:50:10;5.57;;;3.50;;
27127;SDS011;14660;49.008;8.390;2022-11-15T13:52:39;6.35;;;4.07;;
27127;SDS011;14660;49.008;8.390;2022-11-15T14:00:44;9.65;;;6.10;;
27127;SDS011;14660;49.008;8.390;2022-11-15T14:11:53;8.43;;;5.20;;
27127;SDS011;14660;49.008;8.390;2022-11-15T14:14:22;7.50;;;5.10;;
27127;SDS011;14660;49.008;8.390;2022-11-15T14:16:51;6.80;;;4.55;;
27127;SDS011;14660;49.008;8.390;2022-11-15T14:31:07;7.28;;;4.68;;
27127;SDS011;14660;49.008;8.390;2022-11-15T14:33:39;7.60;;;3.90;;
27127;SDS011;14660;49.008;8.390;2022-11-15T14:38:52;5.05;;;3.97;;
27127;SDS011;14660;49.008;8.390;2022-11-15T14:41:24;7.90;;;3.78;;
27127;SDS011;14660;49.008;8.390;2022-11-15T14:43:59;6.63;;;4.50;;
27127;SDS011;14660;49.008;8.390;2022-11-15T14:46:26;8.60;;;4.95;;
27127;SDS011;14660;49.008;8.390;2022-11-15T14:48:53;5.57;;;4.22;;
27127;SDS011;14660;49.008;8.390;2022-11-15T14:51:20;9.93;;;5.78;;
27127;SDS011;14660;49.008;8.390;2022-11-15T14:53:47;10.10;;;7.72;;
27127;SDS011;14660;49.008;8.390;2022-11-15T14:56:14;5.95;;;4.80;;
27127;SDS011;14660;49.008;8.390;2022-11-15T14:58:41;11.85;;;6.78;;
27127;SDS011;14660;49.008;8.390;2022-11-15T15:01:15;21.17;;;12.30;;
27127;SDS011;14660;49.008;8.390;2022-11-15T15:03:47;25.52;;;14.50;;
27127;SDS011;14660;49.008;8.390;2022-11-15T15:06:14;15.57;;;7.93;;
27127;SDS011;14660;49.008;8.390;2022-11-15T15:08:41;13.90;;;7.40;;
27127;SDS011;14660;49.008;8.390;2022-11-15T15:11:31;9.85;;;6.40;;
27127;SDS011;14660;49.008;8.390;2022-11-15T15:14:05;8.73;;;4.32;;
27127;SDS011;14660;49.008;8.390;2022-11-15T15:16:31;8.90;;;3.92;;
27127;SDS011;14660;49.008;8.390;2022-11-15T15:18:58;5.15;;;3.75;;
27127;SDS011;14660;49.008;8.390;2022-11-15T15:21:27;9.40;;;4.05;;
27127;SDS011;14660;49.008;8.390;2022-11-15T15:23:54;8.55;;;4.72;;
27127;SDS011;14660;49.008;8.390;2022-11-15T15:26:22;5.57;;;4.13;;
27127;SDS011;14660;49.008;8.390;2022-11-15T15:28:53;5.88;;;3.88;;
27127;SDS011;14660;49.008;8.390;2022-11-15T15:31:22;8.70;;;5.03;;
27127;SDS011;14660;49.008;8.390;2022-11-15T15:33:48;8.00;;;5.10;;
27127;SDS011;14660;49.008;8.390;2022-11-15T15:36:17;7.35;;;4.75;;
27127;SDS011;14660;49.008;8.390;2022-11-15T15:38:48;7.45;;;4.55;;
27127;SDS011;14660;49.008;8.390;2022-11-15T15:41:16;6.68;;;4.88;;
27127;SDS011;14660;49.008;8.390;2022-11-15T15:43:44;7.88;;;4.38;;
27127;SDS011;14660;49.008;8.390;2022-11-15T15:46:11;9.65;;;5.03;;
27127;SDS011;14660;49.008;8.390;2022-11-15T15:48:43;7.65;;;4.65;;
27127;SDS011;14660;49.008;8.390;2022-11-15T15:51:10;7.10;;;4.45;;
27127;SDS011;14660;49.008;8.390;2022-11-15T15:53:38;6.68;;;4.43;;
27127;SDS011;14660;49.008;8.390;2022-11-15T15:56:06;7.35;;;5.38;;
27127;SDS011;14660;49.008;8.390;2022-11-15T15:58:34;14.25;;;6.72;;
27127;SDS011;14660;49.008;8.390;2022-11-15T16:01:01;13.43;;;7.30;;
27127;SDS011;14660;49.008;8.390;2022-11-15T16:03:28;13.88;;;8.77;;
27127;SDS011;14660;49.008;8.390;2022-11-15T16:05:55;11.45;;;7.82;;
27127;SDS011;14660;49.008;8.390;2022-11-15T16:08:23;10.95;;;6.07;;
27127;SDS011;14660;49.008;8.390;2022-11-15T16:10:53;11.68;;;6.32;;
27127;SDS011;14660;49.008;8.390;2022-11-15T16:13:20;8.30;;;5.22;;
27127;SDS011;14660;49.008;8.390;2022-11-15T16:15:47;10.45;;;5.05;;
27127;SDS011;14660;49.008;8.390;2022-11-15T16:18:18;7.75;;;4.70;;
27127;SDS011;14660;49.008;8.390;2022-11-15T16:20:46;8.57;;;4.82;;
27127;SDS011;14660;49.008;8.390;2022-11-15T16:23:16;6.60;;;4.07;;
27127;SDS011;14660;49.008;8.390;2022-11-15T16:25:55;8.15;;;4.88;;
27127;SDS011;14660;49.008;8.390;2022-11-15T16:28:23;7.10;;;4.40;;
27127;SDS011;14660;49.008;8.390;2022-11-15T16:30:58;5.95;;;3.35;;
27127;SDS011;14660;49.008;8.390;2022-11-15T16:33:28;7.45;;;3.83;;
27127;SDS011;14660;49.008;8.390;2022-11-15T16:35:56;7.00;;;4.32;;
27127;SDS011;14660;49.008;8.390;2022-11-15T16:38:23;7.57;;;3.95;;
27127;SDS011;14660;49.008;8.390;2022-11-15T16:40:50;4.65;;;3.10;;
27127;SDS011;14660;49.008;8.390;2022-11-15T16:43:16;5.43;;;3.47;;
27127;SDS011;14660;49.008;8.390;2022-11-15T16:45:43;7.38;;;3.35;;
27127;SDS011;14660;49.008;8.390;2022-11-15T16:48:30;4.38;;;2.83;;
27127;SDS011;14660;49.008;8.390;2022-11-15T16:50:57;5.60;;;3.30;;
27127;SDS011;14660;49.008;8.390;2022-11-15T16:53:25;8.57;;;3.58;;
27127;SDS011;14660;49.008;8.390;2022-11-15T16:55:53;6.80;;;3.65;;
27127;SDS011;14660;49.008;8.390;2022-11-15T16:58:24;4.53;;;2.75;;
27127;SDS011;14660;49.008;8.390;2022-11-15T17:00:54;7.97;;;3.90;;
27127;SDS011;14660;49.008;8.390;2022-11-15T17:03:28;6.03;;;3.60;;
27127;SDS011;14660;49.008;8.390;2022-11-15T17:05:57;6.28;;;3.53;;
27127;SDS011;14660;49.008;8.390;2022-11-15T17:08:26;6.60;;;3.53;;
27127;SDS011;14660;49.008;8.390;2022-11-15T17:10:54;5.43;;;3.55;;
27127;SDS011;14660;49.008;8.390;2022-11-15T17:13:21;7.90;;;3.83;;
27127;SDS011;14660;49.008;8.390;2022-11-15T17:15:47;5.78;;;3.42;;
27127;SDS011;14660;49.008;8.390;2022-11-15T17:18:14;8.23;;;3.33;;
27127;SDS011;14660;49.008;8.390;2022-11-15T17:20:41;9.30;;;3.38;;
27127;SDS011;14660;49.008;8.390;2022-11-15T17:23:12;4.82;;;3.35;;
27127;SDS011;14660;49.008;8.390;2022-11-15T17:25:41;7.03;;;3.53;;
27127;SDS011;14660;49.008;8.390;2022-11-15T17:28:08;6.30;;;3.53;;
27127;SDS011;14660;49.008;8.390;2022-11-15T17:30:35;5.28;;;3.10;;
27127;SDS011;14660;49.008;8.390;2022-11-15T17:33:04;5.40;;;3.28;;
27127;SDS011;14660;49.008;8.390;2022-11-15T17:35:31;4.03;;;3.10;;
27127;SDS011;14660;49.008;8.390;2022-11-15T17:37:57;5.75;;;3.58;;
27127;SDS011;14660;49.008;8.390;2022-11-15T17:40:24;5.90;;;3.55;;
27127;SDS011;14660;49.008;8.390;2022-11-15T17:42:52;6.55;;;4.63;;
27127;SDS011;14660;49.008;8.390;2022-11-15T17:45:21;6.85;;;4.07;;
27127;SDS011;14660;49.008;8.390;2022-11-15T17:47:51;8.50;;;4.18;;
27127;SDS011;14660;49.008;8.390;2022-11-15T17:50:18;7.07;;;4.57;;
27127;SDS011;14660;49.008;8.390;2022-11-15T17:52:49;8.52;;;4.55;;
27127;SDS011;14660;49.008;8.390;2022-11-15T17:55:16;8.30;;;4.35;;
27127;SDS011;14660;49.008;8.390;2022-11-15T17:57:43;7.15;;;4.20;;
27127;SDS011;14660;49.008;8.390;2022-11-15T18:00:10;7.60;;;4.57;;
27127;SDS011;14660;49.008;8.390;2022-11-15T18:02:38;8.23;;;5.25;;
27127;SDS011;14660;49.008;8.390;2022-11-15T18:05:05;10.80;;;5.85;;
27127;SDS011;14660;49.008;8.390;2022-11-15T18:07:32;7.53;;;5.35;;
27127;SDS011;14660;49.008;8.390;2022-11-15T18:09:59;11.10;;;6.45;;
27127;SDS011;14660;49.008;8.390;2022-11-15T18:12:26;9.23;;;6.53;;
27127;SDS011;14660;49.008;8.390;2022-11-15T18:14:53;9.48;;;6.85;;
27127;SDS011;14660;49.008;8.390;2022-11-15T18:17:20;8.93;;;6.43;;
27127;SDS011;14660;49.008;8.390;2022-11-15T18:19:47;9.60;;;6.88;;
27127;SDS011;14660;49.008;8.390;2022-11-15T18:22:13;11.60;;;7.32;;
27127;SDS011;14660;49.008;8.390;2022-11-15T18:24:40;11.60;;;7.55;;
27127;SDS011;14660;49.008;8.390;2022-11-15T18:27:13;13.43;;;8.07;;
27127;SDS011;14660;49.008;8.390;2022-11-15T18:29:40;15.93;;;8.95;;
27127;SDS011;14660;49.008;8.390;2022-11-15T18:32:13;12.27;;;8.15;;
27127;SDS011;14660;49.008;8.390;2022-11-15T18:34:43;12.65;;;8.27;;
27127;SDS011;14660;49.008;8.390;2022-11-15T18:37:10;17.83;;;8.98;;
27127;SDS011;14660;49.008;8.390;2022-11-15T18:39:37;15.65;;;8.10;;
27127;SDS011;14660;49.008;8.390;2022-11-15T18:42:04;15.30;;;8.18;;
27127;SDS011;14660;49.008;8.390;2022-11-15T18:44:31;13.85;;;8.38;;
27127;SDS011;14660;49.008;8.390;2022-11-15T18:47:00;10.98;;;6.88;;
27127;SDS011;14660;49.008;8.390;2022-11-15T18:49:27;10.90;;;6.35;;
27127;SDS011;14660;49.008;8.390;2022-11-15T18:51:54;10.02;;;6.75;;
27127;SDS011;14660;49.008;8.390;2022-11-15T18:54:22;12.07;;;6.60;;
27127;SDS011;14660;49.008;8.390;2022-11-15T18:56:49;11.50;;;6.22;;
27127;SDS011;14660;49.008;8.390;2022-11-15T18:59:17;11.80;;;7.47;;
27127;SDS011;14660;49.008;8.390;2022-11-15T19:01:44;9.48;;;5.60;;
27127;SDS011;14660;49.008;8.390;2022-11-15T19:04:18;9.75;;;5.60;;
27127;SDS011;14660;49.008;8.390;2022-11-15T19:06:47;10.77;;;6.45;;